createdAt,value
2023-03-29T00:00:38.330Z,27.00
2023-03-29T00:01:38.354Z,26.23
2023-03-29T00:02:38.493Z,28.31
2023-03-29T00:03:38.481Z,26.95
2023-03-29T00:04:38.420Z,26.31
2023-03-29T00:05:39.030Z,26.69
2023-03-29T00:06:38.457Z,26.95
2023-03-29T00:07:38.466Z,25.98
2023-03-29T00:08:38.489Z,25.37
2023-03-29T00:09:38.569Z,28.14
2023-03-29T00:10:38.524Z,25.74
2023-03-29T00:11:38.562Z,26.03
2023-03-29T00:12:38.576Z,27.29
2023-03-29T00:13:38.590Z,28.55
2023-03-29T00:14:38.639Z,25.62
2023-03-29T00:15:38.655Z,26.23
2023-03-29T00:16:38.727Z,27.08
2023-03-29T00:17:38.725Z,26.63
2023-03-29T00:18:38.742Z,27.70
2023-03-29T00:19:38.773Z,26.85
2023-03-29T00:20:38.787Z,26.94
2023-03-29T00:21:38.811Z,27.53
2023-03-29T00:22:38.821Z,25.89
2023-03-29T00:23:38.851Z,25.37
2023-03-29T00:24:38.937Z,27.01
2023-03-29T00:25:38.897Z,25.00
2023-03-29T00:26:38.939Z,28.62
2023-03-29T00:27:38.962Z,26.13
2023-03-29T00:28:38.991Z,27.67
2023-03-29T00:29:39.009Z,27.49
2023-03-29T00:30:39.056Z,26.42
2023-03-29T00:31:39.136Z,27.30
2023-03-29T00:32:39.144Z,26.78
2023-03-29T00:33:39.201Z,27.33
2023-03-29T00:34:39.278Z,26.67
2023-03-29T00:35:39.211Z,25.32
2023-03-29T00:36:39.220Z,29.46
2023-03-29T00:37:39.263Z,28.01
2023-03-29T00:38:39.271Z,26.09
2023-03-29T00:39:39.305Z,27.78
2023-03-29T00:40:39.345Z,27.37
2023-03-29T00:41:39.375Z,27.79
2023-03-29T00:42:39.422Z,28.63
2023-03-29T00:43:39.423Z,27.27
2023-03-29T00:44:39.462Z,27.63
2023-03-29T00:45:39.490Z,26.90
2023-03-29T00:46:39.535Z,29.31
2023-03-29T00:47:39.672Z,26.54
2023-03-29T00:48:39.646Z,26.99
2023-03-29T00:49:39.615Z,26.83
2023-03-29T00:50:40.077Z,27.34
2023-03-29T00:51:39.649Z,25.00
2023-03-29T00:52:39.688Z,25.93
2023-03-29T00:53:39.718Z,26.93
2023-03-29T00:54:39.753Z,27.62
2023-03-29T00:55:39.779Z,26.03
2023-03-29T00:56:40.023Z,25.44
2023-03-29T00:57:39.852Z,28.16
2023-03-29T00:58:39.870Z,26.49
2023-03-29T00:59:39.898Z,25.90
2023-03-29T01:00:39.931Z,25.77
2023-03-29T01:01:40.029Z,26.89
2023-03-29T01:02:40.130Z,27.84
2023-03-29T01:03:40.103Z,27.05
2023-03-29T01:04:40.064Z,27.50
2023-03-29T01:05:40.084Z,27.25
2023-03-29T01:06:40.142Z,28.38
2023-03-29T01:07:40.149Z,27.50
2023-03-29T01:08:40.228Z,26.30
2023-03-29T01:09:40.220Z,27.76
2023-03-29T01:10:40.245Z,25.04
2023-03-29T01:11:40.291Z,28.52
2023-03-29T01:12:40.308Z,26.31
2023-03-29T01:13:40.332Z,27.38
2023-03-29T01:14:40.376Z,26.24
2023-03-29T01:15:40.419Z,26.28
2023-03-29T01:16:40.487Z,26.13
2023-03-29T01:17:40.556Z,26.85
2023-03-29T01:18:40.519Z,26.63
2023-03-29T01:19:40.563Z,28.14
2023-03-29T01:20:40.584Z,29.02
2023-03-29T01:21:40.627Z,26.91
2023-03-29T01:22:40.654Z,27.43
2023-03-29T01:23:40.699Z,27.33
2023-03-29T01:24:40.724Z,28.60
2023-03-29T01:25:40.762Z,29.20
2023-03-29T01:26:40.804Z,28.45
2023-03-29T01:27:40.843Z,28.04
2023-03-29T01:28:40.879Z,28.14
2023-03-29T01:29:40.913Z,26.80
2023-03-29T01:30:41.571Z,26.72
2023-03-29T01:31:41.079Z,27.69
2023-03-29T01:32:41.114Z,28.19
2023-03-29T01:33:41.063Z,27.68
2023-03-29T01:34:41.177Z,30.07
2023-03-29T01:35:41.167Z,29.73
2023-03-29T01:36:41.173Z,27.52
2023-03-29T01:37:41.233Z,28.32
2023-03-29T01:38:41.265Z,28.71
2023-03-29T01:39:41.375Z,26.57
2023-03-29T01:40:41.424Z,28.38
2023-03-29T01:41:41.361Z,28.32
2023-03-29T01:42:41.396Z,27.62
2023-03-29T01:43:41.447Z,26.04
2023-03-29T01:44:41.502Z,27.14
2023-03-29T01:45:41.561Z,26.66
2023-03-29T01:46:41.559Z,26.61
2023-03-29T01:47:41.618Z,26.82
2023-03-29T01:48:41.655Z,27.93
2023-03-29T01:49:41.676Z,25.95
2023-03-29T01:50:41.725Z,27.65
2023-03-29T01:51:41.768Z,26.32
2023-03-29T01:52:41.822Z,28.71
2023-03-29T01:53:41.863Z,28.08
2023-03-29T01:54:41.906Z,27.97
2023-03-29T01:55:41.964Z,26.25
2023-03-29T01:56:42.021Z,25.52
2023-03-29T01:57:42.044Z,27.18
2023-03-29T01:58:42.080Z,27.55
2023-03-29T01:59:42.124Z,27.59
2023-03-29T02:00:42.181Z,26.98
2023-03-29T02:01:42.286Z,26.99
2023-03-29T02:02:42.723Z,28.11
2023-03-29T02:03:42.504Z,27.44
2023-03-29T02:04:42.335Z,26.42
2023-03-29T02:05:42.416Z,28.29
2023-03-29T02:06:42.440Z,28.69
2023-03-29T02:07:42.536Z,28.04
2023-03-29T02:08:42.509Z,27.06
2023-03-29T02:09:42.559Z,26.62
2023-03-29T02:10:42.697Z,27.05
2023-03-29T02:11:42.683Z,27.11
2023-03-29T02:12:42.694Z,27.22
2023-03-29T02:13:42.764Z,28.10
2023-03-29T02:14:42.768Z,26.21
2023-03-29T02:15:42.884Z,27.53
2023-03-29T02:16:42.872Z,26.90
2023-03-29T02:17:42.921Z,26.49
2023-03-29T02:18:42.952Z,25.93
2023-03-29T02:19:42.994Z,28.02
2023-03-29T02:20:43.040Z,27.42
2023-03-29T02:21:43.075Z,25.05
2023-03-29T02:22:43.115Z,27.27
2023-03-29T02:23:43.177Z,25.33
2023-03-29T02:24:43.209Z,29.63
2023-03-29T02:25:43.347Z,27.03
2023-03-29T02:26:43.312Z,28.22
2023-03-29T02:27:43.352Z,25.32
2023-03-29T02:28:43.381Z,27.91
2023-03-29T02:29:43.428Z,26.62
2023-03-29T02:30:43.488Z,25.26
2023-03-29T02:31:43.611Z,26.27
2023-03-29T02:32:43.610Z,26.55
2023-03-29T02:33:43.611Z,29.33
2023-03-29T02:34:43.668Z,27.98
2023-03-29T02:35:43.708Z,25.94
2023-03-29T02:36:44.135Z,27.83
2023-03-29T02:37:43.772Z,27.53
2023-03-29T02:38:43.814Z,28.62
2023-03-29T02:39:43.926Z,28.56
2023-03-29T02:40:43.919Z,28.61
2023-03-29T02:41:43.951Z,28.58
2023-03-29T02:42:44.012Z,25.75
2023-03-29T02:43:44.047Z,25.56
2023-03-29T02:44:44.128Z,26.80
2023-03-29T02:45:44.154Z,25.67
2023-03-29T02:46:44.274Z,25.54
2023-03-29T02:47:44.339Z,27.85
2023-03-29T02:48:44.607Z,27.60
2023-03-29T02:49:44.384Z,29.05
2023-03-29T02:50:44.433Z,27.92
2023-03-29T02:51:44.499Z,27.66
2023-03-29T02:52:44.528Z,28.58
2023-03-29T02:53:44.685Z,25.62
2023-03-29T02:54:44.643Z,28.82
2023-03-29T02:55:44.702Z,28.83
2023-03-29T02:56:44.846Z,27.02
2023-03-29T02:57:44.817Z,29.49
2023-03-29T02:58:44.859Z,29.15
2023-03-29T02:59:44.921Z,27.61
2023-03-29T03:00:44.972Z,28.56
2023-03-29T03:01:45.137Z,27.19
2023-03-29T03:02:45.125Z,27.96
2023-03-29T03:03:46.197Z,27.12
2023-03-29T03:04:45.188Z,28.37
2023-03-29T03:05:46.127Z,28.24
2023-03-29T03:06:45.296Z,29.61
2023-03-29T03:07:46.165Z,28.85
2023-03-29T03:08:45.462Z,28.28
2023-03-29T03:09:45.457Z,28.22
2023-03-29T03:10:45.498Z,28.71
2023-03-29T03:11:45.579Z,28.41
2023-03-29T03:12:45.616Z,27.40
2023-03-29T03:13:45.675Z,27.57
2023-03-29T03:14:46.612Z,26.25
2023-03-29T03:15:45.762Z,27.05
2023-03-29T03:16:45.906Z,27.90
2023-03-29T03:17:45.872Z,28.35
2023-03-29T03:18:45.972Z,28.51
2023-03-29T03:19:45.967Z,28.11
2023-03-29T03:20:46.028Z,29.49
2023-03-29T03:21:46.068Z,28.25
2023-03-29T03:22:46.125Z,26.80
2023-03-29T03:23:46.179Z,26.25
2023-03-29T03:24:46.228Z,28.43
2023-03-29T03:25:46.289Z,27.75
2023-03-29T03:26:46.394Z,27.54
2023-03-29T03:27:46.416Z,28.33
2023-03-29T03:28:46.469Z,29.53
2023-03-29T03:29:46.509Z,26.47
2023-03-29T03:30:46.565Z,27.57
2023-03-29T03:31:47.642Z,27.27
2023-03-29T03:32:46.701Z,25.00
2023-03-29T03:33:46.743Z,27.75
2023-03-29T03:34:46.785Z,28.12
2023-03-29T03:35:46.872Z,27.21
2023-03-29T03:36:47.124Z,27.12
2023-03-29T03:37:46.973Z,29.35
2023-03-29T03:38:47.034Z,25.91
2023-03-29T03:39:47.081Z,25.00
2023-03-29T03:40:47.142Z,27.30
2023-03-29T03:41:47.288Z,26.57
2023-03-29T03:42:47.247Z,29.78
2023-03-29T03:43:47.334Z,27.11
2023-03-29T03:44:47.372Z,28.49
2023-03-29T03:45:47.504Z,28.64
2023-03-29T03:46:47.489Z,27.89
2023-03-29T03:47:47.605Z,27.79
2023-03-29T03:48:47.617Z,28.12
2023-03-29T03:49:47.683Z,26.38
2023-03-29T03:50:47.738Z,27.84
2023-03-29T03:51:47.800Z,28.39
2023-03-29T03:52:47.867Z,28.10
2023-03-29T03:53:47.929Z,31.16
2023-03-29T03:54:47.979Z,27.70
2023-03-29T03:55:48.043Z,27.36
2023-03-29T03:56:48.121Z,28.64
2023-03-29T03:57:48.169Z,28.75
2023-03-29T03:58:48.230Z,27.78
2023-03-29T03:59:48.298Z,28.72
2023-03-29T04:00:48.351Z,26.75
2023-03-29T04:01:48.431Z,27.22
2023-03-29T04:02:48.680Z,29.12
2023-03-29T04:03:48.623Z,26.70
2023-03-29T04:04:48.729Z,26.68
2023-03-29T04:05:48.678Z,26.63
2023-03-29T04:06:48.724Z,25.73
2023-03-29T04:07:48.878Z,28.55
2023-03-29T04:08:48.917Z,26.67
2023-03-29T04:09:48.918Z,25.28
2023-03-29T04:10:48.981Z,28.06
2023-03-29T04:11:49.040Z,27.10
2023-03-29T04:12:49.143Z,26.45
2023-03-29T04:13:49.166Z,27.03
2023-03-29T04:14:49.235Z,25.68
2023-03-29T04:15:49.319Z,28.08
2023-03-29T04:16:49.353Z,27.54
2023-03-29T04:17:49.502Z,26.80
2023-03-29T04:18:49.498Z,26.98
2023-03-29T04:19:49.534Z,26.90
2023-03-29T04:20:49.594Z,26.95
2023-03-29T04:21:49.659Z,28.14
2023-03-29T04:22:49.718Z,26.64
2023-03-29T04:23:49.831Z,29.22
2023-03-29T04:24:49.844Z,27.86
2023-03-29T04:25:49.913Z,25.82
2023-03-29T04:26:49.986Z,25.00
2023-03-29T04:27:50.053Z,30.38
2023-03-29T04:28:50.106Z,27.51
2023-03-29T04:29:50.158Z,26.33
2023-03-29T04:30:50.243Z,25.60
2023-03-29T04:31:50.311Z,25.10
2023-03-29T04:32:50.482Z,25.11
2023-03-29T04:33:50.363Z,26.96
2023-03-29T04:34:50.435Z,28.69
2023-03-29T04:35:50.633Z,28.26
2023-03-29T04:36:50.573Z,25.92
2023-03-29T04:37:50.611Z,26.91
2023-03-29T04:38:51.634Z,27.14
2023-03-29T04:39:50.737Z,28.62
2023-03-29T04:40:50.806Z,27.22
2023-03-29T04:41:50.870Z,28.95
2023-03-29T04:42:50.936Z,24.74
2023-03-29T04:43:51.016Z,26.80
2023-03-29T04:44:51.093Z,29.36
2023-03-29T04:45:51.140Z,26.97
2023-03-29T04:46:51.256Z,27.51
2023-03-29T04:47:51.338Z,27.87
2023-03-29T04:48:51.339Z,28.92
2023-03-29T04:49:51.408Z,25.91
2023-03-29T04:50:51.480Z,27.03
2023-03-29T04:51:51.549Z,26.67
2023-03-29T04:52:51.621Z,29.05
2023-03-29T04:53:52.156Z,26.98
2023-03-29T04:54:51.771Z,27.36
2023-03-29T04:55:51.834Z,28.64
2023-03-29T04:56:51.935Z,30.06
2023-03-29T04:57:52.048Z,27.76
2023-03-29T04:58:52.126Z,27.24
2023-03-29T04:59:52.184Z,26.81
2023-03-29T05:00:52.220Z,28.23
2023-03-29T05:01:52.341Z,27.37
2023-03-29T05:02:52.404Z,27.10
2023-03-29T05:03:52.492Z,27.23
2023-03-29T05:04:52.547Z,27.45
2023-03-29T05:05:52.579Z,28.48
2023-03-29T05:06:52.660Z,28.82
2023-03-29T05:07:52.728Z,27.48
2023-03-29T05:08:52.804Z,27.25
2023-03-29T05:09:52.843Z,27.35
2023-03-29T05:10:52.908Z,28.66
2023-03-29T05:11:52.987Z,25.00
2023-03-29T05:12:53.043Z,29.70
2023-03-29T05:13:53.180Z,27.39
2023-03-29T05:14:53.190Z,25.59
2023-03-29T05:15:53.329Z,26.92
2023-03-29T05:16:53.328Z,26.92
2023-03-29T05:17:53.451Z,27.13
2023-03-29T05:18:53.483Z,27.19
2023-03-29T05:19:53.554Z,27.83
2023-03-29T05:20:53.609Z,27.18
2023-03-29T05:21:53.667Z,26.81
2023-03-29T05:22:53.736Z,27.03
2023-03-29T05:23:53.779Z,28.32
2023-03-29T05:24:54.185Z,26.35
2023-03-29T05:25:53.912Z,31.15
2023-03-29T05:26:54.659Z,32.43
2023-03-29T05:27:54.021Z,35.55
2023-03-29T05:28:54.061Z,41.89
2023-03-29T05:29:54.109Z,47.47
2023-03-29T05:30:54.177Z,52.96
2023-03-29T05:31:54.285Z,56.87
2023-03-29T05:32:54.323Z,62.02
2023-03-29T05:33:54.336Z,62.77
2023-03-29T05:34:54.367Z,67.12
2023-03-29T05:35:54.488Z,71.49
2023-03-29T05:36:54.411Z,75.68
2023-03-29T05:37:54.452Z,76.78
2023-03-29T05:38:54.481Z,82.00
2023-03-29T05:39:54.470Z,85.47
2023-03-29T05:40:55.456Z,85.86
2023-03-29T05:41:55.514Z,86.07
2023-03-29T05:42:54.501Z,88.81
2023-03-29T05:43:54.461Z,94.95
2023-03-29T05:44:54.653Z,106.08
2023-03-29T05:45:54.482Z,118.79
2023-03-29T05:46:54.566Z,128.55
2023-03-29T05:47:54.535Z,132.29
2023-03-29T05:48:54.443Z,134.68
2023-03-29T05:49:54.445Z,137.16
2023-03-29T05:50:54.443Z,143.44
2023-03-29T05:51:54.430Z,147.63
2023-03-29T05:52:54.419Z,150.52
2023-03-29T05:53:54.418Z,153.48
2023-03-29T05:54:54.414Z,157.08
2023-03-29T05:55:54.408Z,159.89
2023-03-29T05:56:54.437Z,164.53
2023-03-29T05:57:54.403Z,167.52
2023-03-29T05:58:55.075Z,172.45
2023-03-29T05:59:54.386Z,174.71
2023-03-29T06:00:54.372Z,179.06
2023-03-29T06:01:54.407Z,183.17
2023-03-29T06:02:54.485Z,185.68
2023-03-29T06:03:55.374Z,197.04
2023-03-29T06:04:54.485Z,197.83
2023-03-29T06:05:54.515Z,198.37
2023-03-29T06:06:54.474Z,203.28
2023-03-29T06:07:54.525Z,205.78
2023-03-29T06:08:54.583Z,205.67
2023-03-29T06:09:54.686Z,210.29
2023-03-29T06:10:54.702Z,211.39
2023-03-29T06:11:54.677Z,214.73
2023-03-29T06:12:54.721Z,219.46
2023-03-29T06:13:54.746Z,219.42
2023-03-29T06:14:54.771Z,222.89
2023-03-29T06:15:54.795Z,225.53
2023-03-29T06:16:54.882Z,227.47
2023-03-29T06:17:54.874Z,233.07
2023-03-29T06:18:54.867Z,235.61
2023-03-29T06:19:54.890Z,237.30
2023-03-29T06:20:54.927Z,239.02
2023-03-29T06:21:55.188Z,243.57
2023-03-29T06:22:55.010Z,249.15
2023-03-29T06:23:55.013Z,84.96
2023-03-29T06:24:55.053Z,22.24
2023-03-29T06:25:55.178Z,49.27
2023-03-29T06:26:55.254Z,74.40
2023-03-29T06:27:55.346Z,78.76
2023-03-29T06:28:55.413Z,83.44
2023-03-29T06:29:55.488Z,88.25
2023-03-29T06:30:55.559Z,93.55
2023-03-29T06:31:55.550Z,97.21
2023-03-29T06:32:55.682Z,102.65
2023-03-29T06:33:55.701Z,107.54
2023-03-29T06:34:55.758Z,106.15
2023-03-29T06:35:57.724Z,112.92
2023-03-29T06:36:55.893Z,115.95
2023-03-29T06:37:55.936Z,120.55
2023-03-29T06:38:55.964Z,124.76
2023-03-29T06:39:55.984Z,129.71
2023-03-29T06:40:55.997Z,132.31
2023-03-29T06:41:55.998Z,135.94
2023-03-29T06:42:56.033Z,139.54
2023-03-29T06:43:56.102Z,144.97
2023-03-29T06:44:56.267Z,150.37
2023-03-29T06:45:56.375Z,151.93
2023-03-29T06:46:56.283Z,156.06
2023-03-29T06:47:56.395Z,159.97
2023-03-29T06:48:56.372Z,165.79
2023-03-29T06:49:56.421Z,170.23
2023-03-29T06:50:56.463Z,171.71
2023-03-29T06:51:56.560Z,177.68
2023-03-29T06:52:56.541Z,179.94
2023-03-29T06:53:56.570Z,184.20
2023-03-29T06:54:56.732Z,186.87
2023-03-29T06:55:56.640Z,189.95
2023-03-29T06:56:56.679Z,195.07
2023-03-29T06:57:56.682Z,198.10
2023-03-29T06:58:56.864Z,199.64
2023-03-29T06:59:56.723Z,205.91
2023-03-29T07:00:56.726Z,206.49
2023-03-29T07:01:56.924Z,209.53
2023-03-29T07:02:57.234Z,217.59
2023-03-29T07:03:56.794Z,220.29
2023-03-29T07:04:56.802Z,220.59
2023-03-29T07:05:56.817Z,225.04
2023-03-29T07:06:56.802Z,234.14
2023-03-29T07:07:56.991Z,241.46
2023-03-29T07:08:56.821Z,242.41
2023-03-29T07:09:56.859Z,245.31
2023-03-29T07:10:56.834Z,247.38
2023-03-29T07:11:56.904Z,248.51
2023-03-29T07:12:56.871Z,250.00
2023-03-29T07:13:56.863Z,250.00
2023-03-29T07:14:56.879Z,248.57
2023-03-29T07:15:56.923Z,250.00
2023-03-29T07:16:57.173Z,246.52
2023-03-29T07:17:56.975Z,248.23
2023-03-29T07:18:57.707Z,249.51
2023-03-29T07:19:56.956Z,247.58
2023-03-29T07:20:56.966Z,249.02
2023-03-29T07:21:57.026Z,248.08
2023-03-29T07:22:57.001Z,248.88
2023-03-29T07:23:57.027Z,249.59
2023-03-29T07:24:57.065Z,249.30
2023-03-29T07:25:57.101Z,249.97
2023-03-29T07:27:04.243Z,248.69
2023-03-29T07:27:58.140Z,248.80
2023-03-29T07:28:57.110Z,249.02
2023-03-29T07:29:57.084Z,248.99
2023-03-29T07:30:57.079Z,248.54
2023-03-29T07:31:57.066Z,249.68
2023-03-29T07:32:57.120Z,248.82
2023-03-29T07:33:57.100Z,246.95
2023-03-29T07:34:57.043Z,246.82
2023-03-29T07:35:58.081Z,246.95
2023-03-29T07:36:57.033Z,247.02
2023-03-29T07:37:57.041Z,246.97
2023-03-29T07:38:57.040Z,246.96
2023-03-29T07:39:57.022Z,247.42
2023-03-29T07:40:57.019Z,245.65
2023-03-29T07:41:57.025Z,244.20
2023-03-29T07:42:57.026Z,246.65
2023-03-29T07:43:57.007Z,243.28
2023-03-29T07:44:57.062Z,244.77
2023-03-29T07:45:57.085Z,241.60
2023-03-29T07:46:57.109Z,241.48
2023-03-29T07:47:57.287Z,241.74
2023-03-29T07:48:57.193Z,241.45
2023-03-29T07:49:57.233Z,240.01
2023-03-29T07:50:57.317Z,238.62
2023-03-29T07:51:57.302Z,237.68
2023-03-29T07:52:57.359Z,237.43
2023-03-29T07:53:57.385Z,238.84
2023-03-29T07:54:57.409Z,238.01
2023-03-29T07:55:57.429Z,236.14
2023-03-29T07:56:57.478Z,235.46
2023-03-29T07:57:57.439Z,236.37
2023-03-29T07:58:57.436Z,233.26
2023-03-29T07:59:57.443Z,232.24
2023-03-29T08:00:57.575Z,232.42
2023-03-29T08:01:57.490Z,230.84
2023-03-29T08:02:58.275Z,229.43
2023-03-29T08:03:57.630Z,228.19
2023-03-29T08:04:57.493Z,226.19
2023-03-29T08:05:57.484Z,225.85
2023-03-29T08:06:57.473Z,227.05
2023-03-29T08:07:57.720Z,225.12
2023-03-29T08:08:57.499Z,225.73
2023-03-29T08:09:57.507Z,223.94
2023-03-29T08:10:57.499Z,225.53
2023-03-29T08:11:57.553Z,224.91
2023-03-29T08:12:57.514Z,222.77
2023-03-29T08:13:57.504Z,221.67
2023-03-29T08:14:57.548Z,221.20
2023-03-29T08:15:57.521Z,219.67
2023-03-29T08:16:57.590Z,220.60
2023-03-29T08:17:57.564Z,222.00
2023-03-29T08:18:57.539Z,220.65
2023-03-29T08:19:57.553Z,220.94
2023-03-29T08:20:57.546Z,217.72
2023-03-29T08:21:57.555Z,217.63
2023-03-29T08:22:57.570Z,214.43
2023-03-29T08:23:57.579Z,213.97
2023-03-29T08:24:57.618Z,212.50
2023-03-29T08:25:57.659Z,211.13
2023-03-29T08:26:57.620Z,210.06
2023-03-29T08:27:57.650Z,211.78
2023-03-29T08:28:57.654Z,209.71
2023-03-29T08:29:57.679Z,209.25
2023-03-29T08:30:57.722Z,210.52
2023-03-29T08:31:57.707Z,209.66
2023-03-29T08:32:57.738Z,208.95
2023-03-29T08:33:57.742Z,209.43
2023-03-29T08:34:57.761Z,207.25
2023-03-29T08:35:57.854Z,208.78
2023-03-29T08:36:57.803Z,207.30
2023-03-29T08:37:57.809Z,206.12
2023-03-29T08:38:57.842Z,207.21
2023-03-29T08:39:58.734Z,205.07
2023-03-29T08:40:57.862Z,203.74
2023-03-29T08:41:57.886Z,203.97
2023-03-29T08:42:57.897Z,204.45
2023-03-29T08:43:57.937Z,204.41
2023-03-29T08:44:58.035Z,203.67
2023-03-29T08:45:57.981Z,204.24
2023-03-29T08:46:58.870Z,201.93
2023-03-29T08:47:58.028Z,201.30
2023-03-29T08:48:58.020Z,199.24
2023-03-29T08:49:58.039Z,198.87
2023-03-29T08:50:58.066Z,196.71
2023-03-29T08:51:58.092Z,196.11
2023-03-29T08:52:58.108Z,196.74
2023-03-29T08:53:58.127Z,196.14
2023-03-29T08:54:58.137Z,196.79
2023-03-29T08:55:58.212Z,195.06
2023-03-29T08:56:58.210Z,194.65
2023-03-29T08:57:58.288Z,192.71
2023-03-29T08:58:58.229Z,196.12
2023-03-29T08:59:58.276Z,192.57
2023-03-29T09:00:58.279Z,190.78
2023-03-29T09:01:58.317Z,192.16
2023-03-29T09:02:58.465Z,191.17
2023-03-29T09:03:58.379Z,188.66
2023-03-29T09:04:58.356Z,190.56
2023-03-29T09:05:58.745Z,188.94
2023-03-29T09:06:58.412Z,188.33
2023-03-29T09:07:58.429Z,188.11
2023-03-29T09:08:58.461Z,186.99
2023-03-29T09:09:58.494Z,187.03
2023-03-29T09:10:58.500Z,186.74
2023-03-29T09:11:58.543Z,184.03
2023-03-29T09:12:58.801Z,185.97
2023-03-29T09:13:58.562Z,184.55
2023-03-29T09:14:58.584Z,182.80
2023-03-29T09:15:58.636Z,182.92
2023-03-29T09:16:58.622Z,182.46
2023-03-29T09:17:58.688Z,182.28
2023-03-29T09:18:58.689Z,182.27
2023-03-29T09:19:58.683Z,183.19
2023-03-29T09:20:58.833Z,181.45
2023-03-29T09:21:58.725Z,180.05
2023-03-29T09:22:58.767Z,181.75
2023-03-29T09:23:58.779Z,181.26
2023-03-29T09:24:58.803Z,180.56
2023-03-29T09:25:59.708Z,179.41
2023-03-29T09:26:58.849Z,178.07
2023-03-29T09:27:58.879Z,177.81
2023-03-29T09:28:58.918Z,178.33
2023-03-29T09:29:58.930Z,177.22
2023-03-29T09:30:59.257Z,178.30
2023-03-29T09:31:58.987Z,177.30
2023-03-29T09:32:59.078Z,177.60
2023-03-29T09:33:59.023Z,176.94
2023-03-29T09:34:59.762Z,178.12
2023-03-29T09:35:59.107Z,174.63
2023-03-29T09:36:59.100Z,176.43
2023-03-29T09:37:59.119Z,175.50
2023-03-29T09:38:59.162Z,174.29
2023-03-29T09:39:59.173Z,176.38
2023-03-29T09:40:59.251Z,174.95
2023-03-29T09:41:59.225Z,171.74
2023-03-29T09:42:59.253Z,174.85
2023-03-29T09:43:59.289Z,172.69
2023-03-29T09:44:59.311Z,175.06
2023-03-29T09:45:59.385Z,172.92
2023-03-29T09:46:59.383Z,172.53
2023-03-29T09:47:59.429Z,172.98
2023-03-29T09:48:59.441Z,171.99
2023-03-29T09:49:59.468Z,170.92
2023-03-29T09:50:59.545Z,172.38
2023-03-29T09:51:59.531Z,170.77
2023-03-29T09:52:59.570Z,169.62
2023-03-29T09:53:59.603Z,170.12
2023-03-29T09:54:59.638Z,171.92
2023-03-29T09:55:59.672Z,168.35
2023-03-29T09:56:59.757Z,168.31
2023-03-29T09:57:59.734Z,167.19
2023-03-29T09:59:00.260Z,168.65
2023-03-29T09:59:59.799Z,169.50
2023-03-29T10:00:59.989Z,168.79
2023-03-29T10:02:00.755Z,167.47
2023-03-29T10:03:00.020Z,166.20
2023-03-29T10:04:00.115Z,167.13
2023-03-29T10:04:59.965Z,166.34
2023-03-29T10:06:00.007Z,168.10
2023-03-29T10:07:00.060Z,166.54
2023-03-29T10:08:00.121Z,165.79
2023-03-29T10:09:00.135Z,165.26
2023-03-29T10:10:00.200Z,167.11
2023-03-29T10:11:00.411Z,166.72
2023-03-29T10:12:00.212Z,167.37
2023-03-29T10:13:00.253Z,164.44
2023-03-29T10:14:00.303Z,166.21
2023-03-29T10:15:00.356Z,163.81
2023-03-29T10:16:01.284Z,162.32
2023-03-29T10:17:00.461Z,163.71
2023-03-29T10:18:00.501Z,163.43
2023-03-29T10:19:00.776Z,162.46
2023-03-29T10:20:03.076Z,164.38
2023-03-29T10:21:01.492Z,166.05
2023-03-29T10:22:00.554Z,164.99
2023-03-29T10:23:00.546Z,163.45
2023-03-29T10:24:00.776Z,161.14
2023-03-29T10:25:00.566Z,163.38
2023-03-29T10:26:00.560Z,161.96
2023-03-29T10:27:00.559Z,160.81
2023-03-29T10:28:00.628Z,162.33
2023-03-29T10:29:00.586Z,160.62
2023-03-29T10:30:00.566Z,160.09
2023-03-29T10:31:00.891Z,159.51
2023-03-29T10:32:00.638Z,159.32
2023-03-29T10:33:00.639Z,159.16
2023-03-29T10:34:00.601Z,156.92
2023-03-29T10:35:00.629Z,159.15
2023-03-29T10:36:00.657Z,158.81
2023-03-29T10:37:00.615Z,155.65
2023-03-29T10:38:00.617Z,156.68
2023-03-29T10:39:01.660Z,158.25
2023-03-29T10:40:00.654Z,155.81
2023-03-29T10:41:00.889Z,154.82
2023-03-29T10:42:00.653Z,153.02
2023-03-29T10:43:00.664Z,155.54
2023-03-29T10:44:00.663Z,153.16
2023-03-29T10:45:01.152Z,153.61
2023-03-29T10:46:00.709Z,152.33
2023-03-29T10:47:00.680Z,152.59
2023-03-29T10:48:00.782Z,155.23
2023-03-29T10:49:00.720Z,153.23
2023-03-29T10:50:00.757Z,151.20
2023-03-29T10:51:01.131Z,153.74
2023-03-29T10:52:00.789Z,153.08
2023-03-29T10:53:00.821Z,151.48
2023-03-29T10:54:00.857Z,152.92
2023-03-29T10:55:00.899Z,150.92
2023-03-29T10:56:00.923Z,150.14
2023-03-29T10:57:01.000Z,151.86
2023-03-29T10:58:00.998Z,150.26
2023-03-29T10:59:01.032Z,151.40
2023-03-29T11:00:01.175Z,149.19
2023-03-29T11:01:01.268Z,150.87
2023-03-29T11:02:01.193Z,150.85
2023-03-29T11:03:01.248Z,148.54
2023-03-29T11:04:01.326Z,148.99
2023-03-29T11:05:01.255Z,149.26
2023-03-29T11:06:01.309Z,148.23
2023-03-29T11:07:01.326Z,148.85
2023-03-29T11:08:01.369Z,149.27
2023-03-29T11:09:01.406Z,147.04
2023-03-29T11:10:01.484Z,147.17
2023-03-29T11:11:01.739Z,148.71
2023-03-29T11:12:15.051Z,144.70
2023-03-29T11:13:02.539Z,144.93
2023-03-29T11:14:01.545Z,145.43
2023-03-29T11:15:01.621Z,145.80
2023-03-29T11:16:01.618Z,146.54
2023-03-29T11:17:01.566Z,146.88
2023-03-29T11:18:01.632Z,145.89
2023-03-29T11:19:01.575Z,146.30
2023-03-29T11:20:03.703Z,145.99
2023-03-29T11:21:01.745Z,149.04
2023-03-29T11:22:01.618Z,145.30
2023-03-29T11:23:01.735Z,146.71
2023-03-29T11:24:01.637Z,144.82
2023-03-29T11:25:01.669Z,144.10
2023-03-29T11:26:01.665Z,143.64
2023-03-29T11:27:01.673Z,143.25
2023-03-29T11:28:01.730Z,145.34
2023-03-29T11:29:01.695Z,144.39
2023-03-29T11:30:01.915Z,141.91
2023-03-29T11:31:02.222Z,144.61
2023-03-29T11:32:01.804Z,142.11
2023-03-29T11:33:01.891Z,142.95
2023-03-29T11:34:01.820Z,141.30
2023-03-29T11:35:01.778Z,140.80
2023-03-29T11:36:01.803Z,140.46
2023-03-29T11:37:01.776Z,140.86
2023-03-29T11:38:01.819Z,142.34
2023-03-29T11:39:01.825Z,140.38
2023-03-29T11:40:01.811Z,138.89
2023-03-29T11:41:01.938Z,140.35
2023-03-29T11:42:01.820Z,139.69
2023-03-29T11:43:01.844Z,140.59
2023-03-29T11:44:01.892Z,140.19
2023-03-29T11:45:01.854Z,138.37
2023-03-29T11:46:01.888Z,137.16
2023-03-29T11:47:02.009Z,137.07
2023-03-29T11:48:02.013Z,136.06
2023-03-29T11:49:01.887Z,137.27
2023-03-29T11:50:01.915Z,136.03
2023-03-29T11:51:02.124Z,134.94
2023-03-29T11:52:02.799Z,134.57
2023-03-29T11:53:01.932Z,137.05
2023-03-29T11:54:01.961Z,134.99
2023-03-29T11:55:01.945Z,135.78
2023-03-29T11:56:02.307Z,135.61
2023-03-29T11:57:02.013Z,134.98
2023-03-29T11:58:01.968Z,131.54
2023-03-29T11:59:01.977Z,132.83
2023-03-29T12:00:02.011Z,132.20
2023-03-29T12:01:02.211Z,135.72
2023-03-29T12:02:02.031Z,134.19
2023-03-29T12:03:02.110Z,131.70
2023-03-29T12:04:02.126Z,130.62
2023-03-29T12:05:02.076Z,129.40
2023-03-29T12:06:02.312Z,129.73
2023-03-29T12:07:02.140Z,128.59
2023-03-29T12:08:02.321Z,128.42
2023-03-29T12:09:02.090Z,127.50
2023-03-29T12:10:02.124Z,130.08
2023-03-29T12:11:02.284Z,126.98
2023-03-29T12:12:02.124Z,129.25
2023-03-29T12:13:02.157Z,129.23
2023-03-29T12:14:02.134Z,125.80
2023-03-29T12:15:02.169Z,125.41
2023-03-29T12:16:02.242Z,125.36
2023-03-29T12:17:02.304Z,123.10
2023-03-29T12:18:02.355Z,125.80
2023-03-29T12:19:02.372Z,123.86
2023-03-29T12:20:02.424Z,124.29
2023-03-29T12:21:02.549Z,121.33
2023-03-29T12:22:02.548Z,123.78
2023-03-29T12:23:02.631Z,123.22
2023-03-29T12:24:02.683Z,119.97
2023-03-29T12:25:02.756Z,121.44
2023-03-29T12:26:02.830Z,121.99
2023-03-29T12:27:02.905Z,120.96
2023-03-29T12:28:02.963Z,120.47
2023-03-29T12:29:03.328Z,119.71
2023-03-29T12:30:03.093Z,119.44
2023-03-29T12:31:03.297Z,118.72
2023-03-29T12:32:03.278Z,116.02
2023-03-29T12:33:03.362Z,120.24
2023-03-29T12:34:03.366Z,118.37
2023-03-29T12:35:03.456Z,118.56
2023-03-29T12:36:03.645Z,117.51
2023-03-29T12:37:03.576Z,116.12
2023-03-29T12:38:03.647Z,114.80
2023-03-29T12:39:03.705Z,116.76
2023-03-29T12:40:03.788Z,113.00